createdAt,value
2022-11-09T00:00:49.676Z,9.75
2022-11-09T00:03:17.130Z,8.00
2022-11-09T00:05:44.247Z,15.00
2022-11-09T00:08:12.039Z,27.00
2022-11-09T00:10:39.275Z,25.00
2022-11-09T00:13:06.531Z,21.00
2022-11-09T00:15:33.477Z,22.00
2022-11-09T00:18:03.502Z,22.00
2022-11-09T00:20:30.674Z,17.75
2022-11-09T00:22:57.659Z,21.00
2022-11-09T00:25:24.553Z,23.25
2022-11-09T00:27:51.633Z,23.75
2022-11-09T00:30:18.622Z,16.50
2022-11-09T00:32:45.606Z,25.00
2022-11-09T00:35:12.515Z,20.25
2022-11-09T00:37:39.742Z,20.00
2022-11-09T00:40:07.370Z,22.50
2022-11-09T00:42:34.278Z,18.25
2022-11-09T00:45:01.244Z,12.00
2022-11-09T00:47:28.135Z,8.00
2022-11-09T00:49:55.650Z,18.00
2022-11-09T00:52:22.590Z,15.00
2022-11-09T00:54:49.612Z,14.25
2022-11-09T00:57:17.250Z,9.00
2022-11-09T00:59:44.201Z,12.00
2022-11-09T01:02:11.077Z,10.75
2022-11-09T01:04:38.002Z,1.00
2022-11-09T01:07:06.918Z,8.25
2022-11-09T01:09:34.258Z,10.75
2022-11-09T01:12:01.280Z,3.50
2022-11-09T01:14:28.324Z,7.00
2022-11-09T01:16:55.370Z,7.50
2022-11-09T01:19:22.344Z,6.50
2022-11-09T01:21:49.312Z,2.25
2022-11-09T01:24:16.225Z,5.25
2022-11-09T01:26:43.152Z,4.75
2022-11-09T01:29:10.136Z,5.75
2022-11-09T01:31:37.047Z,6.00
2022-11-09T01:34:04.031Z,4.25
2022-11-09T01:36:31.546Z,6.25
2022-11-09T01:38:58.528Z,5.00
2022-11-09T01:41:28.656Z,2.25
2022-11-09T01:44:08.650Z,5.25
2022-11-09T01:46:54.021Z,4.00
2022-11-09T01:49:41.243Z,2.50
2022-11-09T01:52:20.777Z,2.25
2022-11-09T01:54:51.842Z,6.00
2022-11-09T01:57:25.809Z,5.50
2022-11-09T01:59:57.614Z,2.75
2022-11-09T02:02:24.914Z,2.00
2022-11-09T02:04:58.505Z,7.00
2022-11-09T02:07:41.721Z,2.00
2022-11-09T02:11:00.406Z,1.00
2022-11-09T02:13:52.924Z,6.50
2022-11-09T02:16:41.571Z,5.00
2022-11-09T02:19:22.768Z,5.50
2022-11-09T02:22:15.000Z,2.50
2022-11-09T02:24:41.886Z,2.50
2022-11-09T02:27:09.238Z,3.00
2022-11-09T02:29:40.866Z,5.00
2022-11-09T02:32:12.922Z,8.50
2022-11-09T02:34:39.831Z,10.00
2022-11-09T02:37:06.899Z,7.75
2022-11-09T02:39:34.741Z,10.50
2022-11-09T02:42:20.940Z,11.50
2022-11-09T02:44:52.664Z,15.00
2022-11-09T02:47:19.592Z,24.00
2022-11-09T02:49:46.710Z,22.50
2022-11-09T02:52:13.764Z,18.00
2022-11-09T02:54:40.650Z,14.00
2022-11-09T02:57:07.574Z,12.00
2022-11-09T02:59:34.750Z,10.50
2022-11-09T03:02:01.825Z,1.00
2022-11-09T03:04:28.884Z,11.00
2022-11-09T03:06:55.873Z,7.50
2022-11-09T03:09:22.785Z,11.50
2022-11-09T03:11:50.766Z,8.00
2022-11-09T03:14:18.113Z,10.00
2022-11-09T03:16:50.170Z,6.00
2022-11-09T03:19:17.733Z,7.00
2022-11-09T03:21:44.816Z,6.00
2022-11-09T03:24:11.830Z,6.00
2022-11-09T03:26:38.772Z,3.00
2022-11-09T03:29:05.703Z,6.75
2022-11-09T03:31:32.617Z,12.00
2022-11-09T03:33:59.517Z,26.00
2022-11-09T03:36:26.403Z,20.67
2022-11-09T03:38:53.306Z,21.00
2022-11-09T03:41:20.190Z,28.00
2022-11-09T03:43:47.094Z,24.00
2022-11-09T03:46:13.956Z,19.50
2022-11-09T03:48:40.864Z,16.00
2022-11-09T03:51:07.736Z,11.25
2022-11-09T03:53:34.679Z,10.50
2022-11-09T03:56:01.589Z,6.00
2022-11-09T03:58:28.470Z,5.75
2022-11-09T04:00:55.396Z,9.25
2022-11-09T04:03:22.614Z,2.50
2022-11-09T04:05:49.679Z,4.50
2022-11-09T04:08:16.818Z,9.50
2022-11-09T04:10:43.751Z,4.00
2022-11-09T04:13:10.700Z,1.00
2022-11-09T04:15:37.652Z,2.00
2022-11-09T04:18:04.552Z,4.25
2022-11-09T04:20:32.594Z,1.00
2022-11-09T04:23:05.066Z,7.00
2022-11-09T04:25:35.568Z,7.50
2022-11-09T04:28:04.443Z,9.50
2022-11-09T04:30:33.553Z,7.00
2022-11-09T04:33:02.080Z,15.25
2022-11-09T04:35:30.372Z,19.75
2022-11-09T04:38:08.604Z,21.67
2022-11-09T04:40:36.543Z,21.00
2022-11-09T04:43:05.601Z,15.00
2022-11-09T04:45:35.918Z,8.75
2022-11-09T04:48:05.221Z,9.50
2022-11-09T04:50:32.824Z,9.00
2022-11-09T04:53:11.906Z,8.25
2022-11-09T04:55:39.741Z,8.00
2022-11-09T04:58:06.941Z,3.00
2022-11-09T05:00:34.861Z,6.25
2022-11-09T05:03:03.152Z,2.00
2022-11-09T05:05:30.523Z,4.00
2022-11-09T05:07:57.480Z,13.50
2022-11-09T05:10:24.483Z,10.00
2022-11-09T05:12:58.369Z,6.50
2022-11-09T05:15:25.430Z,6.75
2022-11-09T05:17:52.389Z,3.00
2022-11-09T05:20:19.798Z,15.50
2022-11-09T05:23:05.144Z,20.00
2022-11-09T05:25:32.063Z,14.00
2022-11-09T05:27:58.997Z,9.00
2022-11-09T05:30:26.344Z,2.00
2022-11-09T05:32:53.338Z,11.00
2022-11-09T05:35:20.225Z,7.00
2022-11-09T05:37:48.795Z,5.75
2022-11-09T05:40:17.285Z,6.25
2022-11-09T05:42:44.677Z,5.75
2022-11-09T05:48:05.328Z,5.75
2022-11-09T05:50:32.610Z,6.00
2022-11-09T05:53:00.651Z,7.50
2022-11-09T05:55:27.960Z,5.25
2022-11-09T05:57:55.634Z,2.75
2022-11-09T06:00:22.905Z,3.00
2022-11-09T06:02:50.467Z,5.25
2022-11-09T06:05:17.566Z,6.00
2022-11-09T06:07:44.490Z,4.00
2022-11-09T06:10:12.039Z,3.25
2022-11-09T06:12:41.023Z,2.25
2022-11-09T06:15:08.655Z,10.00
2022-11-09T06:17:35.534Z,7.00
2022-11-09T06:20:02.524Z,7.50
2022-11-09T06:22:29.432Z,3.00
2022-11-09T06:24:56.378Z,6.25
2022-11-09T06:27:23.358Z,5.50
2022-11-09T06:29:50.241Z,8.25
2022-11-09T06:32:17.167Z,13.75
2022-11-09T06:34:44.605Z,7.75
2022-11-09T06:37:11.506Z,5.50
2022-11-09T06:39:38.430Z,6.75
2022-11-09T06:42:05.431Z,12.75
2022-11-09T06:44:32.440Z,12.00
2022-11-09T06:46:59.340Z,12.50
2022-11-09T06:49:26.317Z,13.00
2022-11-09T06:51:53.240Z,7.25
2022-11-09T06:54:20.144Z,2.00
2022-11-09T06:56:47.019Z,18.50
2022-11-09T06:59:14.050Z,11.00
2022-11-09T07:01:41.039Z,9.50
2022-11-09T07:04:07.965Z,7.25
2022-11-09T07:06:34.997Z,8.00
2022-11-09T07:09:01.938Z,7.25
2022-11-09T07:11:28.890Z,11.50
2022-11-09T07:13:57.648Z,8.75
2022-11-09T07:16:25.066Z,4.50
2022-11-09T07:18:51.954Z,3.50
2022-11-09T07:21:19.141Z,6.50
2022-11-09T07:23:48.162Z,8.50
2022-11-09T07:26:16.123Z,8.00
2022-11-09T07:28:43.588Z,3.00
2022-11-09T07:31:10.831Z,4.50
2022-11-09T07:33:37.745Z,6.00
2022-11-09T07:36:06.218Z,7.50
2022-11-09T07:38:33.207Z,5.00
2022-11-09T07:41:01.627Z,5.25
2022-11-09T07:43:29.832Z,7.25
2022-11-09T07:45:56.816Z,7.00
2022-11-09T07:48:24.062Z,6.00
2022-11-09T07:50:50.999Z,8.75
2022-11-09T07:53:18.469Z,3.50
2022-11-09T07:55:45.649Z,3.00
2022-11-09T07:58:15.890Z,9.50
2022-11-09T08:00:43.663Z,11.75
2022-11-09T08:03:10.971Z,9.25
2022-11-09T08:05:38.781Z,7.25
2022-11-09T08:08:09.192Z,7.50
2022-11-09T08:10:37.341Z,7.00
2022-11-09T08:13:11.349Z,6.00
2022-11-09T08:15:39.116Z,13.00
2022-11-09T08:18:13.138Z,4.75
2022-11-09T08:20:40.249Z,8.50
2022-11-09T08:23:07.936Z,8.25
2022-11-09T08:25:36.192Z,9.75
2022-11-09T08:28:03.804Z,9.25
2022-11-09T08:30:31.216Z,10.50
2022-11-09T08:33:00.425Z,10.00
2022-11-09T08:35:28.218Z,16.50
2022-11-09T08:37:55.622Z,14.00
2022-11-09T08:40:25.506Z,15.00
2022-11-09T08:42:53.315Z,11.75
2022-11-09T08:45:21.201Z,12.50
2022-11-09T08:47:48.249Z,11.00
2022-11-09T08:50:16.310Z,11.50
2022-11-09T08:52:43.256Z,13.75
2022-11-09T08:55:10.250Z,18.25
2022-11-09T08:57:37.250Z,11.00
2022-11-09T09:00:05.866Z,11.00
2022-11-09T09:02:32.933Z,11.50
2022-11-09T09:05:00.011Z,12.00
2022-11-09T09:07:27.001Z,10.00
2022-11-09T09:09:54.529Z,15.75
2022-11-09T09:12:21.455Z,10.75
2022-11-09T09:14:48.421Z,10.00
2022-11-09T09:17:15.393Z,6.75
2022-11-09T09:19:47.305Z,11.00
2022-11-09T09:22:16.781Z,5.75
2022-11-09T09:24:43.699Z,5.00
2022-11-09T09:27:10.646Z,10.25
2022-11-09T09:29:37.527Z,11.50
2022-11-09T09:32:05.210Z,16.00
2022-11-09T09:34:32.394Z,16.50
2022-11-09T09:36:59.296Z,17.25
2022-11-09T09:39:26.247Z,13.00
2022-11-09T09:41:54.752Z,11.00
2022-11-09T09:44:40.953Z,9.25
2022-11-09T09:47:45.898Z,9.00
2022-11-09T09:50:21.952Z,10.00
2022-11-09T09:53:17.751Z,12.00
2022-11-09T09:55:45.851Z,8.00
2022-11-09T09:58:21.995Z,6.25
2022-11-09T10:00:55.264Z,6.00
2022-11-09T10:03:22.313Z,3.00
2022-11-09T10:06:16.804Z,7.25
2022-11-09T10:09:09.818Z,9.00
2022-11-09T10:11:59.886Z,6.00
2022-11-09T10:15:01.888Z,6.75
2022-11-09T10:17:55.815Z,7.25
2022-11-09T10:20:49.095Z,11.00
2022-11-09T10:23:21.756Z,13.00
2022-11-09T10:26:04.505Z,20.00
2022-11-09T10:28:54.318Z,11.75
2022-11-09T10:31:23.050Z,11.75
2022-11-09T10:33:56.287Z,8.25
2022-11-09T10:36:31.153Z,7.75
2022-11-09T10:39:01.597Z,7.00
2022-11-09T10:41:32.103Z,8.00
2022-11-09T10:44:00.106Z,7.75
2022-11-09T10:46:27.033Z,4.00
2022-11-09T10:48:55.927Z,5.75
2022-11-09T10:51:40.590Z,5.50
2022-11-09T10:54:28.295Z,5.00
2022-11-09T10:57:11.959Z,6.00
2022-11-09T10:59:58.441Z,7.50
2022-11-09T11:02:25.663Z,8.75
2022-11-09T11:05:15.601Z,8.00
2022-11-09T11:07:42.569Z,7.50
2022-11-09T11:10:18.339Z,7.00
2022-11-09T11:12:53.671Z,16.25
2022-11-09T11:15:26.683Z,9.25
2022-11-09T11:18:02.380Z,7.00
2022-11-09T11:20:31.237Z,6.00
2022-11-09T11:23:24.988Z,8.25
2022-11-09T11:25:57.824Z,8.75
2022-11-09T11:28:45.784Z,8.00
2022-11-09T11:31:16.165Z,8.00
2022-11-09T11:33:43.702Z,7.00
2022-11-09T11:36:29.095Z,6.75
2022-11-09T11:39:20.880Z,10.00
2022-11-09T11:42:10.396Z,5.00
2022-11-09T11:45:38.920Z,6.50
2022-11-09T11:48:04.681Z,7.50
2022-11-09T11:50:58.176Z,11.00
2022-11-09T11:53:25.111Z,11.00
2022-11-09T11:55:51.930Z,8.00
2022-11-09T12:02:47.077Z,7.50
2022-11-09T12:05:37.001Z,10.00
2022-11-09T12:08:27.481Z,10.00
2022-11-09T12:10:57.438Z,8.00
2022-11-09T12:14:20.291Z,8.50
2022-11-09T12:16:53.180Z,7.75
2022-11-09T12:19:35.301Z,6.00
2022-11-09T12:22:34.263Z,8.00
2022-11-09T12:25:19.604Z,8.00
2022-11-09T12:31:58.224Z,7.00
2022-11-09T12:34:38.714Z,8.50
2022-11-09T12:37:14.464Z,8.00
2022-11-09T12:39:49.109Z,8.00
2022-11-09T12:42:52.711Z,7.00
2022-11-09T12:45:32.983Z,7.00
2022-11-09T12:48:07.047Z,10.00
2022-11-09T12:50:34.742Z,6.75
2022-11-09T12:53:04.538Z,9.75
2022-11-09T12:55:51.296Z,14.00
2022-11-09T12:58:38.992Z,11.00
2022-11-09T13:01:11.141Z,8.00
2022-11-09T13:03:57.117Z,6.75
2022-11-09T13:06:26.494Z,6.00
2022-11-09T13:09:06.663Z,6.00
2022-11-09T13:11:36.349Z,5.75
2022-11-09T13:14:21.987Z,9.75
2022-11-09T13:16:50.383Z,11.00
2022-11-09T13:19:35.593Z,9.00
2022-11-09T13:25:44.503Z,6.75
2022-11-09T13:28:33.317Z,6.00
2022-11-09T13:31:00.742Z,6.00
2022-11-09T13:33:29.408Z,7.00
2022-11-09T13:36:07.131Z,9.00
2022-11-09T13:38:35.901Z,8.50
2022-11-09T13:41:05.091Z,9.00
2022-11-09T13:43:40.986Z,9.75
2022-11-09T13:46:29.848Z,8.00
2022-11-09T13:48:56.916Z,7.75
2022-11-09T13:51:37.356Z,8.00
2022-11-09T13:54:25.394Z,8.00
2022-11-09T13:56:53.459Z,6.00
2022-11-09T13:59:28.557Z,5.00
2022-11-09T14:01:58.140Z,6.00
2022-11-09T14:04:28.861Z,8.50
2022-11-09T14:07:03.975Z,9.50
2022-11-09T14:10:07.523Z,8.25
2022-11-09T14:13:16.809Z,6.50
2022-11-09T14:15:57.528Z,8.75
2022-11-09T14:18:53.506Z,7.50
2022-11-09T14:21:39.220Z,6.25
2022-11-09T14:24:26.163Z,5.00
2022-11-09T14:27:11.503Z,8.25
2022-11-09T14:29:51.961Z,15.00
2022-11-09T14:32:18.958Z,13.00
2022-11-09T14:34:45.823Z,6.50
2022-11-09T14:37:14.953Z,8.00
2022-11-09T14:39:41.951Z,9.50
2022-11-09T14:42:18.651Z,13.00
2022-11-09T14:44:46.860Z,11.25
2022-11-09T14:47:18.073Z,8.75
2022-11-09T14:49:46.292Z,10.25
2022-11-09T14:52:18.433Z,10.00
2022-11-09T14:54:46.644Z,9.25
2022-11-09T14:57:16.693Z,6.00
2022-11-09T14:59:45.616Z,9.50
2022-11-09T15:02:16.094Z,11.00
2022-11-09T15:04:55.024Z,11.00
2022-11-09T15:07:25.401Z,15.00
2022-11-09T15:09:57.795Z,12.50
2022-11-09T15:12:25.671Z,15.00
2022-11-09T15:15:03.491Z,11.00
2022-11-09T15:17:32.122Z,8.50
2022-11-09T15:20:21.356Z,4.00
2022-11-09T15:22:55.151Z,4.75
2022-11-09T15:25:30.177Z,5.25
2022-11-09T15:28:02.887Z,3.25
2022-11-09T15:31:07.115Z,3.00
2022-11-09T15:33:33.997Z,2.25
2022-11-09T15:36:05.248Z,8.50
2022-11-09T15:38:44.171Z,6.00
2022-11-09T15:41:13.877Z,6.00
2022-11-09T15:43:41.237Z,4.25
2022-11-09T15:46:08.416Z,6.50
2022-11-09T15:48:36.153Z,6.75
2022-11-09T15:51:03.201Z,5.00
2022-11-09T15:53:30.345Z,5.00
2022-11-09T15:55:57.254Z,5.00
2022-11-09T15:58:24.464Z,5.00
2022-11-09T16:00:51.702Z,8.50
2022-11-09T16:03:18.741Z,6.00
2022-11-09T16:05:46.096Z,5.50
2022-11-09T16:08:13.509Z,6.00
2022-11-09T16:10:42.055Z,8.00
2022-11-09T16:13:10.922Z,8.75
2022-11-09T16:15:38.233Z,4.50
2022-11-09T16:18:05.855Z,6.75
2022-11-09T16:20:32.751Z,4.00
2022-11-09T16:22:59.620Z,2.00
2022-11-09T16:25:27.324Z,3.75
2022-11-09T16:27:54.597Z,4.25
2022-11-09T16:30:21.911Z,1.00
2022-11-09T16:32:48.819Z,4.50
2022-11-09T16:35:26.786Z,5.00
2022-11-09T16:37:55.432Z,4.25
2022-11-09T16:40:23.027Z,5.00
2022-11-09T16:42:52.199Z,7.50
2022-11-09T16:45:19.959Z,10.25
2022-11-09T16:47:51.264Z,5.50
2022-11-09T16:50:18.710Z,3.50
2022-11-09T16:52:45.698Z,4.50
2022-11-09T16:55:12.672Z,3.00
2022-11-09T16:57:39.712Z,3.00
2022-11-09T17:00:08.421Z,7.25
2022-11-09T17:02:35.980Z,9.00
2022-11-09T17:05:03.134Z,8.00
2022-11-09T17:07:30.880Z,7.00
2022-11-09T17:09:58.051Z,13.00
2022-11-09T17:12:24.995Z,7.25
2022-11-09T17:14:51.934Z,8.50
2022-11-09T17:17:22.589Z,8.75
2022-11-09T17:19:50.300Z,7.50
2022-11-09T17:22:17.930Z,11.50
2022-11-09T17:24:46.125Z,10.00
2022-11-09T17:27:13.170Z,8.25
2022-11-09T17:29:40.667Z,10.25
2022-11-09T17:32:09.222Z,16.00
2022-11-09T17:34:36.615Z,21.50
2022-11-09T17:37:05.388Z,25.00
2022-11-09T17:39:34.049Z,21.25
2022-11-09T17:42:01.016Z,22.75
2022-11-09T17:44:27.956Z,16.50
2022-11-09T17:46:54.877Z,15.00
2022-11-09T17:49:22.248Z,9.75
2022-11-09T17:51:49.126Z,21.50
2022-11-09T17:54:16.249Z,21.25
2022-11-09T17:56:43.625Z,14.50
2022-11-09T17:59:11.518Z,18.25
2022-11-09T18:01:41.489Z,16.00
2022-11-09T18:04:10.980Z,10.50
2022-11-09T18:06:38.455Z,23.00
2022-11-09T18:11:52.558Z,18.75
2022-11-09T18:14:19.754Z,16.00
2022-11-09T18:16:46.885Z,20.25
2022-11-09T18:19:14.186Z,14.50
2022-11-09T18:21:41.722Z,8.50
2022-11-09T18:24:08.980Z,14.00
2022-11-09T18:26:36.148Z,15.00
2022-11-09T18:29:03.274Z,10.00
2022-11-09T18:31:30.505Z,8.75
2022-11-09T18:33:57.714Z,9.25
2022-11-09T18:36:25.162Z,7.75
2022-11-09T18:38:56.007Z,7.00
2022-11-09T18:41:25.204Z,6.50
2022-11-09T18:43:54.968Z,6.75
2022-11-09T18:46:22.852Z,11.00
2022-11-09T18:48:54.069Z,5.00
2022-11-09T18:51:21.655Z,10.75
2022-11-09T18:53:49.437Z,8.50
2022-11-09T18:56:24.712Z,10.50
2022-11-09T18:58:54.253Z,8.25
2022-11-09T19:01:24.865Z,21.75
2022-11-09T19:03:56.454Z,16.50
2022-11-09T19:06:25.137Z,18.00
2022-11-09T19:09:10.708Z,16.00
2022-11-09T19:11:37.740Z,18.00
2022-11-09T19:14:04.642Z,19.50
2022-11-09T19:16:31.687Z,14.00
2022-11-09T19:18:59.517Z,7.25
2022-11-09T19:21:29.574Z,7.00
2022-11-09T19:24:34.724Z,12.50
2022-11-09T19:27:01.819Z,8.75
2022-11-09T19:29:28.777Z,7.75
2022-11-09T19:31:55.827Z,7.25
2022-11-09T19:34:22.887Z,4.25
2022-11-09T19:36:49.888Z,8.50
2022-11-09T19:39:17.609Z,8.75
2022-11-09T19:41:45.060Z,9.00
2022-11-09T19:44:14.754Z,12.50
2022-11-09T19:46:41.988Z,8.25
2022-11-09T19:49:10.058Z,11.50
2022-11-09T19:51:38.566Z,8.00
2022-11-09T19:54:06.223Z,5.00
2022-11-09T19:56:33.669Z,9.75
2022-11-09T19:59:02.659Z,13.25
2022-11-09T20:01:31.047Z,10.75
2022-11-09T20:04:05.132Z,26.00
2022-11-09T20:06:37.440Z,18.50
2022-11-09T20:09:04.429Z,16.25
2022-11-09T20:11:49.671Z,16.00
2022-11-09T20:14:16.623Z,15.25
2022-11-09T20:16:44.873Z,20.00
2022-11-09T20:19:13.483Z,16.00
2022-11-09T20:21:41.270Z,11.00
2022-11-09T20:24:09.060Z,12.25
2022-11-09T20:26:36.543Z,7.25
2022-11-09T20:29:04.222Z,13.00
2022-11-09T20:31:31.515Z,13.00
2022-11-09T20:33:59.880Z,9.25
2022-11-09T20:36:27.810Z,10.50
2022-11-09T20:38:55.138Z,10.00
2022-11-09T20:41:25.403Z,8.75
2022-11-09T20:43:53.264Z,14.00
2022-11-09T20:46:22.649Z,10.25
2022-11-09T20:48:55.184Z,11.50
2022-11-09T20:51:24.197Z,16.75
2022-11-09T20:53:52.660Z,26.00
2022-11-09T20:56:21.780Z,22.00
2022-11-09T20:58:48.841Z,22.00
2022-11-09T21:01:19.286Z,19.00
2022-11-09T21:03:47.130Z,17.00
2022-11-09T21:06:15.082Z,13.00
2022-11-09T21:08:51.750Z,10.00
2022-11-09T21:11:19.725Z,8.00
2022-11-09T21:13:56.711Z,10.50
2022-11-09T21:16:25.155Z,8.50
2022-11-09T21:18:52.389Z,7.00
2022-11-09T21:21:21.847Z,10.50
2022-11-09T21:24:08.983Z,6.00
2022-11-09T21:26:54.679Z,3.00
2022-11-09T21:29:42.560Z,10.00
2022-11-09T21:32:11.335Z,11.50
2022-11-09T21:34:38.445Z,9.75
2022-11-09T21:37:06.109Z,18.25
2022-11-09T21:39:33.576Z,15.50
2022-11-09T21:42:01.303Z,10.00
2022-11-09T21:44:30.298Z,10.00
2022-11-09T21:46:58.284Z,10.00
2022-11-09T21:49:25.595Z,13.25
2022-11-09T21:51:52.895Z,21.00
2022-11-09T21:54:21.042Z,15.00
2022-11-09T21:56:49.261Z,14.50
2022-11-09T21:59:16.988Z,14.00
2022-11-09T22:01:45.064Z,13.00
2022-11-09T22:04:12.614Z,13.75
2022-11-09T22:06:41.620Z,12.25
2022-11-09T22:09:14.013Z,20.25
2022-11-09T22:11:59.663Z,13.50
2022-11-09T22:14:45.200Z,10.25
2022-11-09T22:17:12.779Z,9.00
2022-11-09T22:19:59.158Z,7.00
2022-11-09T22:22:29.372Z,5.25
2022-11-09T22:24:56.781Z,4.00
2022-11-09T22:27:23.952Z,7.00
2022-11-09T22:29:53.746Z,10.50
2022-11-09T22:32:21.916Z,9.75
2022-11-09T22:34:49.189Z,11.00
2022-11-09T22:37:16.400Z,12.25
2022-11-09T22:39:47.232Z,9.75
2022-11-09T22:42:15.153Z,7.25
2022-11-09T22:44:42.106Z,18.00
2022-11-09T22:47:08.999Z,18.50
2022-11-09T22:49:37.189Z,14.00
2022-11-09T22:52:05.152Z,11.50
2022-11-09T22:54:32.209Z,10.00
2022-11-09T22:56:59.162Z,19.25
2022-11-09T22:59:26.132Z,16.00
2022-11-09T23:01:53.125Z,14.50
2022-11-09T23:04:20.086Z,13.25
2022-11-09T23:06:47.081Z,13.00
2022-11-09T23:09:14.128Z,10.75
2022-11-09T23:11:41.504Z,18.50
2022-11-09T23:14:12.526Z,17.50
2022-11-09T23:16:39.487Z,19.00
2022-11-09T23:19:06.400Z,16.50
2022-11-09T23:21:36.090Z,14.50
2022-11-09T23:24:05.758Z,10.75
2022-11-09T23:26:36.650Z,11.25
2022-11-09T23:29:03.570Z,8.00
2022-11-09T23:31:30.489Z,9.00
2022-11-09T23:33:58.280Z,7.50
2022-11-09T23:36:26.621Z,8.00
2022-11-09T23:38:53.708Z,10.00
2022-11-09T23:41:20.982Z,11.00
2022-11-09T23:43:49.964Z,9.25
2022-11-09T23:46:18.156Z,13.25
2022-11-09T23:48:45.570Z,11.25
2022-11-09T23:51:13.121Z,11.00
2022-11-09T23:53:40.063Z,9.25
2022-11-09T23:56:12.008Z,12.75
2022-11-09T23:58:39.048Z,14.00
